sensor_id;sensor_type;location;lat;lon;timestamp;pressure;altitude;pressure_sealevel;temperature;humidity
596;BME280;19946;49.306;11.350;2023-05-11T00:00:07;96117.97;;;9.90;100.00
596;BME280;19946;49.306;11.350;2023-05-11T00:03:11;96127.09;;;10.04;100.00
596;BME280;19946;49.306;11.350;2023-05-11T00:06:11;96099.84;;;9.90;100.00
596;BME280;19946;49.306;11.350;2023-05-11T00:09:12;96099.03;;;9.89;100.00
596;BME280;19946;49.306;11.350;2023-05-11T00:12:14;96135.81;;;10.12;100.00
596;BME280;19946;49.306;11.350;2023-05-11T00:15:15;96092.91;;;9.81;100.00
596;BME280;19946;49.306;11.350;2023-05-11T00:18:15;96095.22;;;9.84;100.00
596;BME280;19946;49.306;11.350;2023-05-11T00:21:17;96141.41;;;10.17;100.00
596;BME280;19946;49.306;11.350;2023-05-11T00:24:18;96117.56;;;10.04;100.00
596;BME280;19946;49.306;11.350;2023-05-11T00:27:19;96091.16;;;9.91;100.00
596;BME280;19946;49.306;11.350;2023-05-11T00:30:23;96077.09;;;9.74;100.00
596;BME280;19946;49.306;11.350;2023-05-11T00:33:29;96116.34;;;10.08;100.00
596;BME280;19946;49.306;11.350;2023-05-11T00:36:29;96076.97;;;9.76;100.00
596;BME280;19946;49.306;11.350;2023-05-11T00:39:30;96094.66;;;9.80;100.00
596;BME280;19946;49.306;11.350;2023-05-11T00:42:34;96101.88;;;9.86;100.00
596;BME280;19946;49.306;11.350;2023-05-11T00:45:35;96074.94;;;9.79;100.00
596;BME280;19946;49.306;11.350;2023-05-11T00:48:35;96106.94;;;9.98;100.00
596;BME280;19946;49.306;11.350;2023-05-11T00:51:39;96074.53;;;9.84;100.00
596;BME280;19946;49.306;11.350;2023-05-11T00:54:53;96094.00;;;9.98;100.00
596;BME280;19946;49.306;11.350;2023-05-11T00:57:59;96076.16;;;9.85;100.00
596;BME280;19946;49.306;11.350;2023-05-11T01:01:07;96068.09;;;9.69;100.00
596;BME280;19946;49.306;11.350;2023-05-11T01:04:09;96113.34;;;10.03;100.00
596;BME280;19946;49.306;11.350;2023-05-11T01:07:28;96101.06;;;9.96;100.00
596;BME280;19946;49.306;11.350;2023-05-11T01:13:42;96080.22;;;9.78;100.00
596;BME280;19946;49.306;11.350;2023-05-11T01:16:55;96084.41;;;9.60;100.00
596;BME280;19946;49.306;11.350;2023-05-11T01:20:06;96094.38;;;9.74;100.00
596;BME280;19946;49.306;11.350;2023-05-11T01:30:29;96116.47;;;10.07;100.00
596;BME280;19946;49.306;11.350;2023-05-11T01:33:34;96096.44;;;9.80;100.00
596;BME280;19946;49.306;11.350;2023-05-11T01:36:44;96067.94;;;9.51;100.00
596;BME280;19946;49.306;11.350;2023-05-11T01:39:51;96102.13;;;9.74;100.00
596;BME280;19946;49.306;11.350;2023-05-11T01:43:03;96079.34;;;9.48;100.00
596;BME280;19946;49.306;11.350;2023-05-11T01:46:09;96069.13;;;9.37;100.00
596;BME280;19946;49.306;11.350;2023-05-11T01:49:12;96060.25;;;9.30;100.00
596;BME280;19946;49.306;11.350;2023-05-11T01:52:15;96077.72;;;9.47;100.00
596;BME280;19946;49.306;11.350;2023-05-11T01:55:20;96076.66;;;9.50;100.00
596;BME280;19946;49.306;11.350;2023-05-11T01:58:24;96095.97;;;9.65;100.00
596;BME280;19946;49.306;11.350;2023-05-11T02:01:28;96055.94;;;9.40;100.00
596;BME280;19946;49.306;11.350;2023-05-11T02:04:32;96065.19;;;9.43;100.00
596;BME280;19946;49.306;11.350;2023-05-11T02:07:35;96065.19;;;9.43;100.00
596;BME280;19946;49.306;11.350;2023-05-11T02:10:38;96086.19;;;9.59;100.00
596;BME280;19946;49.306;11.350;2023-05-11T02:13:44;96080.06;;;9.50;100.00
596;BME280;19946;49.306;11.350;2023-05-11T02:16:47;96087.69;;;9.62;100.00
596;BME280;19946;49.306;11.350;2023-05-11T02:19:53;96095.84;;;9.67;100.00
596;BME280;19946;49.306;11.350;2023-05-11T02:22:56;96052.13;;;9.35;100.00
596;BME280;19946;49.306;11.350;2023-05-11T02:26:00;96082.88;;;9.47;100.00
596;BME280;19946;49.306;11.350;2023-05-11T02:29:04;96037.41;;;9.26;100.00
596;BME280;19946;49.306;11.350;2023-05-11T02:32:08;96076.09;;;9.56;100.00
596;BME280;19946;49.306;11.350;2023-05-11T02:35:24;96050.50;;;9.43;100.00
596;BME280;19946;49.306;11.350;2023-05-11T02:38:30;96097.63;;;9.76;100.00
596;BME280;19946;49.306;11.350;2023-05-11T02:41:42;96058.69;;;9.48;100.00
596;BME280;19946;49.306;11.350;2023-05-11T02:45:10;96102.53;;;9.60;100.00
596;BME280;19946;49.306;11.350;2023-05-11T02:48:20;96081.91;;;9.39;100.00
596;BME280;19946;49.306;11.350;2023-05-11T02:51:29;96096.28;;;9.62;100.00
596;BME280;19946;49.306;11.350;2023-05-11T02:54:35;96084.53;;;9.48;100.00
596;BME280;19946;49.306;11.350;2023-05-11T02:57:37;96077.69;;;9.38;100.00
596;BME280;19946;49.306;11.350;2023-05-11T03:00:40;96068.47;;;9.45;100.00
596;BME280;19946;49.306;11.350;2023-05-11T03:03:41;96037.66;;;9.23;100.00
596;BME280;19946;49.306;11.350;2023-05-11T03:06:44;96066.31;;;9.60;100.00
596;BME280;19946;49.306;11.350;2023-05-11T03:09:44;96065.75;;;9.46;100.00
596;BME280;19946;49.306;11.350;2023-05-11T03:12:45;96056.22;;;9.47;100.00
596;BME280;19946;49.306;11.350;2023-05-11T03:15:52;96025.16;;;9.18;100.00
596;BME280;19946;49.306;11.350;2023-05-11T03:18:54;96038.91;;;9.28;100.00
596;BME280;19946;49.306;11.350;2023-05-11T03:21:57;96064.38;;;9.42;100.00
596;BME280;19946;49.306;11.350;2023-05-11T03:25:02;96092.88;;;9.71;100.00
596;BME280;19946;49.306;11.350;2023-05-11T03:28:04;96051.44;;;9.42;100.00
596;BME280;19946;49.306;11.350;2023-05-11T03:31:08;96045.63;;;9.40;100.00
596;BME280;19946;49.306;11.350;2023-05-11T03:34:10;96026.53;;;9.32;100.00
596;BME280;19946;49.306;11.350;2023-05-11T03:37:16;96071.19;;;9.53;100.00
596;BME280;19946;49.306;11.350;2023-05-11T03:40:23;96072.44;;;9.59;100.00
596;BME280;19946;49.306;11.350;2023-05-11T03:43:33;96065.75;;;9.56;100.00
596;BME280;19946;49.306;11.350;2023-05-11T03:46:39;96081.44;;;9.74;100.00
596;BME280;19946;49.306;11.350;2023-05-11T03:49:44;95999.69;;;9.13;100.00
596;BME280;19946;49.306;11.350;2023-05-11T03:52:47;96079.25;;;9.60;100.00
596;BME280;19946;49.306;11.350;2023-05-11T03:55:50;96071.75;;;9.57;100.00
596;BME280;19946;49.306;11.350;2023-05-11T03:58:53;96080.22;;;9.68;100.00
596;BME280;19946;49.306;11.350;2023-05-11T04:02:05;96030.38;;;9.37;100.00
596;BME280;19946;49.306;11.350;2023-05-11T04:09:46;96071.88;;;9.45;100.00
596;BME280;19946;49.306;11.350;2023-05-11T04:13:40;96054.97;;;9.41;100.00
596;BME280;19946;49.306;11.350;2023-05-11T04:16:51;96027.19;;;9.24;100.00
596;BME280;19946;49.306;11.350;2023-05-11T04:24:34;96051.53;;;9.31;100.00
596;BME280;19946;49.306;11.350;2023-05-11T04:28:05;96023.06;;;9.12;100.00
596;BME280;19946;49.306;11.350;2023-05-11T04:31:58;95995.31;;;8.95;100.00
596;BME280;19946;49.306;11.350;2023-05-11T04:35:12;96014.66;;;9.20;100.00
596;BME280;19946;49.306;11.350;2023-05-11T04:38:18;96054.72;;;9.44;100.00
596;BME280;19946;49.306;11.350;2023-05-11T04:42:00;96002.00;;;9.07;100.00
596;BME280;19946;49.306;11.350;2023-05-11T04:45:38;96024.63;;;9.24;100.00
596;BME280;19946;49.306;11.350;2023-05-11T04:56:41;96033.75;;;9.28;100.00
596;BME280;19946;49.306;11.350;2023-05-11T05:00:15;96067.56;;;9.75;100.00
596;BME280;19946;49.306;11.350;2023-05-11T05:03:20;96067.69;;;9.64;100.00
596;BME280;19946;49.306;11.350;2023-05-11T05:07:10;96027.03;;;9.16;100.00
596;BME280;19946;49.306;11.350;2023-05-11T05:14:19;96009.50;;;9.20;100.00
596;BME280;19946;49.306;11.350;2023-05-11T05:17:23;96080.09;;;9.70;100.00
596;BME280;19946;49.306;11.350;2023-05-11T05:20:24;96044.25;;;9.56;100.00
596;BME280;19946;49.306;11.350;2023-05-11T05:23:33;96083.25;;;9.73;100.00
596;BME280;19946;49.306;11.350;2023-05-11T05:26:47;96042.47;;;9.46;100.00
596;BME280;19946;49.306;11.350;2023-05-11T05:33:03;96049.00;;;9.41;100.00
596;BME280;19946;49.306;11.350;2023-05-11T05:36:13;96071.09;;;9.64;100.00
596;BME280;19946;49.306;11.350;2023-05-11T05:39:16;96026.84;;;9.38;100.00
596;BME280;19946;49.306;11.350;2023-05-11T05:42:45;96093.72;;;9.41;100.00
596;BME280;19946;49.306;11.350;2023-05-11T05:45:56;96039.53;;;9.11;100.00
596;BME280;19946;49.306;11.350;2023-05-11T05:49:11;96048.22;;;9.10;100.00
596;BME280;19946;49.306;11.350;2023-05-11T05:52:17;96043.63;;;9.23;100.00
596;BME280;19946;49.306;11.350;2023-05-11T05:55:31;96069.81;;;9.39;100.00
596;BME280;19946;49.306;11.350;2023-05-11T05:58:43;96026.31;;;9.04;100.00
596;BME280;19946;49.306;11.350;2023-05-11T06:02:08;96042.66;;;9.14;100.00
596;BME280;19946;49.306;11.350;2023-05-11T06:05:17;96101.38;;;9.52;100.00
596;BME280;19946;49.306;11.350;2023-05-11T06:09:12;96015.31;;;9.12;100.00
596;BME280;19946;49.306;11.350;2023-05-11T06:12:15;96103.78;;;9.35;100.00
596;BME280;19946;49.306;11.350;2023-05-11T06:15:34;96046.66;;;8.98;100.00
596;BME280;19946;49.306;11.350;2023-05-11T06:19:41;96049.94;;;9.00;100.00
596;BME280;19946;49.306;11.350;2023-05-11T06:22:52;96103.53;;;9.38;100.00
596;BME280;19946;49.306;11.350;2023-05-11T06:26:21;96055.03;;;9.11;100.00
596;BME280;19946;49.306;11.350;2023-05-11T06:29:54;96058.03;;;9.16;100.00
596;BME280;19946;49.306;11.350;2023-05-11T06:33:15;96042.50;;;9.06;100.00
596;BME280;19946;49.306;11.350;2023-05-11T06:36:17;96106.38;;;9.35;100.00
596;BME280;19946;49.306;11.350;2023-05-11T06:39:52;96057.78;;;8.89;100.00
596;BME280;19946;49.306;11.350;2023-05-11T06:43:00;96050.31;;;8.86;100.00
596;BME280;19946;49.306;11.350;2023-05-11T06:46:25;96073.09;;;9.11;100.00
596;BME280;19946;49.306;11.350;2023-05-11T06:49:36;96106.72;;;9.21;100.00
596;BME280;19946;49.306;11.350;2023-05-11T06:52:41;96023.56;;;8.66;100.00
596;BME280;19946;49.306;11.350;2023-05-11T06:55:44;96100.63;;;9.31;100.00
596;BME280;19946;49.306;11.350;2023-05-11T06:58:55;96102.78;;;9.57;100.00
596;BME280;19946;49.306;11.350;2023-05-11T07:02:26;96031.03;;;8.99;100.00
596;BME280;19946;49.306;11.350;2023-05-11T07:06:09;96086.63;;;9.24;100.00
596;BME280;19946;49.306;11.350;2023-05-11T07:09:18;96109.56;;;9.58;100.00
596;BME280;19946;49.306;11.350;2023-05-11T07:12:26;96079.78;;;9.63;100.00
596;BME280;19946;49.306;11.350;2023-05-11T07:15:33;96042.81;;;9.23;100.00
596;BME280;19946;49.306;11.350;2023-05-11T07:19:16;96065.47;;;9.40;100.00
596;BME280;19946;49.306;11.350;2023-05-11T07:26:18;96052.50;;;9.30;100.00
596;BME280;19946;49.306;11.350;2023-05-11T07:29:50;96106.44;;;9.64;100.00
596;BME280;19946;49.306;11.350;2023-05-11T07:33:23;96060.94;;;9.32;100.00
596;BME280;19946;49.306;11.350;2023-05-11T07:36:54;96030.22;;;8.99;100.00
596;BME280;19946;49.306;11.350;2023-05-11T07:40:18;96054.56;;;8.96;100.00
596;BME280;19946;49.306;11.350;2023-05-11T07:43:43;96052.88;;;9.16;100.00
596;BME280;19946;49.306;11.350;2023-05-11T07:46:55;96042.56;;;9.26;100.00
596;BME280;19946;49.306;11.350;2023-05-11T07:50:41;96111.28;;;9.87;100.00
596;BME280;19946;49.306;11.350;2023-05-11T07:53:50;96108.53;;;9.70;100.00
596;BME280;19946;49.306;11.350;2023-05-11T07:56:55;96049.41;;;9.36;100.00
596;BME280;19946;49.306;11.350;2023-05-11T08:00:19;96085.31;;;9.39;100.00
596;BME280;19946;49.306;11.350;2023-05-11T08:03:53;96107.00;;;9.58;100.00
596;BME280;19946;49.306;11.350;2023-05-11T08:07:10;96098.53;;;9.46;100.00
596;BME280;19946;49.306;11.350;2023-05-11T08:10:51;96049.88;;;9.21;100.00
596;BME280;19946;49.306;11.350;2023-05-11T08:15:00;96105.34;;;9.57;100.00
596;BME280;19946;49.306;11.350;2023-05-11T08:21:53;96062.78;;;9.61;100.00
596;BME280;19946;49.306;11.350;2023-05-11T08:25:04;96026.25;;;9.25;100.00
596;BME280;19946;49.306;11.350;2023-05-11T08:58:01;96057.81;;;9.29;100.00
596;BME280;19946;49.306;11.350;2023-05-11T09:51:15;96094.69;;;9.90;100.00
596;BME280;19946;49.306;11.350;2023-05-11T09:54:22;96068.78;;;9.61;100.00
596;BME280;19946;49.306;11.350;2023-05-11T09:57:27;96001.47;;;9.13;100.00
596;BME280;19946;49.306;11.350;2023-05-11T10:07:33;96012.16;;;9.48;100.00
596;BME280;19946;49.306;11.350;2023-05-11T10:11:15;96071.53;;;9.79;100.00
596;BME280;19946;49.306;11.350;2023-05-11T10:14:48;96002.44;;;9.31;100.00
596;BME280;19946;49.306;11.350;2023-05-11T10:23:05;95998.84;;;9.03;100.00
596;BME280;19946;49.306;11.350;2023-05-11T10:26:27;96008.97;;;9.16;100.00
596;BME280;19946;49.306;11.350;2023-05-11T10:29:58;96057.63;;;9.61;100.00
596;BME280;19946;49.306;11.350;2023-05-11T10:33:10;96076.66;;;9.60;100.00
596;BME280;19946;49.306;11.350;2023-05-11T10:37:02;95998.88;;;9.13;100.00
596;BME280;19946;49.306;11.350;2023-05-11T10:40:52;96002.91;;;9.56;100.00
596;BME280;19946;49.306;11.350;2023-05-11T10:44:47;96067.44;;;9.96;100.00
596;BME280;19946;49.306;11.350;2023-05-11T10:48:10;96060.81;;;10.03;100.00
596;BME280;19946;49.306;11.350;2023-05-11T11:02:38;96022.00;;;9.83;100.00
596;BME280;19946;49.306;11.350;2023-05-11T11:05:44;96002.13;;;9.84;100.00
596;BME280;19946;49.306;11.350;2023-05-11T11:09:03;96014.78;;;9.87;100.00
596;BME280;19946;49.306;11.350;2023-05-11T11:12:08;96003.34;;;9.61;100.00
596;BME280;19946;49.306;11.350;2023-05-11T11:22:43;96079.03;;;9.82;100.00
596;BME280;19946;49.306;11.350;2023-05-11T11:26:47;96026.88;;;9.58;100.00
596;BME280;19946;49.306;11.350;2023-05-11T11:30:27;96030.97;;;9.70;100.00
596;BME280;19946;49.306;11.350;2023-05-11T11:33:58;96038.34;;;10.03;100.00
596;BME280;19946;49.306;11.350;2023-05-11T11:37:44;96027.31;;;10.01;100.00
596;BME280;19946;49.306;11.350;2023-05-11T11:52:55;96080.81;;;10.39;100.00
596;BME280;19946;49.306;11.350;2023-05-11T11:56:04;96017.66;;;9.94;100.00
596;BME280;19946;49.306;11.350;2023-05-11T11:59:12;96089.41;;;10.49;100.00
596;BME280;19946;49.306;11.350;2023-05-11T12:02:54;96038.59;;;10.10;100.00
596;BME280;19946;49.306;11.350;2023-05-11T12:06:05;96066.66;;;10.53;100.00
596;BME280;19946;49.306;11.350;2023-05-11T12:09:10;96079.63;;;10.34;100.00
596;BME280;19946;49.306;11.350;2023-05-11T12:13:05;96019.81;;;9.98;100.00
596;BME280;19946;49.306;11.350;2023-05-11T12:16:17;96028.94;;;9.93;100.00
596;BME280;19946;49.306;11.350;2023-05-11T12:19:33;96087.78;;;10.19;100.00
596;BME280;19946;49.306;11.350;2023-05-11T12:23:09;96048.53;;;10.14;100.00
596;BME280;19946;49.306;11.350;2023-05-11T12:26:40;96076.88;;;10.54;100.00
596;BME280;19946;49.306;11.350;2023-05-11T12:31:00;96089.00;;;10.44;100.00
596;BME280;19946;49.306;11.350;2023-05-11T12:35:05;96041.75;;;10.33;100.00
596;BME280;19946;49.306;11.350;2023-05-11T12:42:19;96085.47;;;10.45;100.00
596;BME280;19946;49.306;11.350;2023-05-11T12:45:40;96000.75;;;10.28;100.00
596;BME280;19946;49.306;11.350;2023-05-11T12:48:48;96026.47;;;10.39;100.00
596;BME280;19946;49.306;11.350;2023-05-11T13:08:20;96017.91;;;10.00;100.00
596;BME280;19946;49.306;11.350;2023-05-11T13:31:02;96050.88;;;10.46;100.00
596;BME280;19946;49.306;11.350;2023-05-11T13:41:46;96048.41;;;10.45;100.00
596;BME280;19946;49.306;11.350;2023-05-11T13:45:19;96065.94;;;10.60;100.00
596;BME280;19946;49.306;11.350;2023-05-11T13:48:37;96033.44;;;10.29;100.00
596;BME280;19946;49.306;11.350;2023-05-11T13:51:58;96047.34;;;10.38;100.00
596;BME280;19946;49.306;11.350;2023-05-11T13:55:21;96047.31;;;10.47;100.00
596;BME280;19946;49.306;11.350;2023-05-11T13:58:30;96055.59;;;10.70;100.00
596;BME280;19946;49.306;11.350;2023-05-11T14:01:34;96023.19;;;10.47;100.00
596;BME280;19946;49.306;11.350;2023-05-11T14:04:47;96007.69;;;10.47;100.00
596;BME280;19946;49.306;11.350;2023-05-11T14:08:01;96000.88;;;10.46;100.00
596;BME280;19946;49.306;11.350;2023-05-11T14:11:08;96023.56;;;10.61;100.00
596;BME280;19946;49.306;11.350;2023-05-11T14:14:46;96006.72;;;10.48;100.00
596;BME280;19946;49.306;11.350;2023-05-11T14:18:01;96026.84;;;10.54;100.00
596;BME280;19946;49.306;11.350;2023-05-11T14:21:29;96044.53;;;10.78;100.00
596;BME280;19946;49.306;11.350;2023-05-11T14:24:42;96041.66;;;10.71;100.00
596;BME280;19946;49.306;11.350;2023-05-11T14:28:05;95995.28;;;10.41;100.00
596;BME280;19946;49.306;11.350;2023-05-11T14:31:17;95993.13;;;10.36;100.00
596;BME280;19946;49.306;11.350;2023-05-11T14:37:48;96045.28;;;10.41;100.00
596;BME280;19946;49.306;11.350;2023-05-11T14:50:41;96031.31;;;10.71;100.00
596;BME280;19946;49.306;11.350;2023-05-11T14:53:53;96027.97;;;10.42;100.00
596;BME280;19946;49.306;11.350;2023-05-11T15:04:09;95964.81;;;9.77;100.00
596;BME280;19946;49.306;11.350;2023-05-11T15:20:23;96005.13;;;9.79;100.00
596;BME280;19946;49.306;11.350;2023-05-11T15:23:35;95957.75;;;9.50;100.00
596;BME280;19946;49.306;11.350;2023-05-11T15:26:59;96038.34;;;9.94;100.00
596;BME280;19946;49.306;11.350;2023-05-11T15:30:26;96009.84;;;9.74;100.00
596;BME280;19946;49.306;11.350;2023-05-11T15:33:34;96004.69;;;9.65;100.00
596;BME280;19946;49.306;11.350;2023-05-11T15:36:40;96041.88;;;9.83;100.00
596;BME280;19946;49.306;11.350;2023-05-11T15:40:10;96013.38;;;9.64;100.00
596;BME280;19946;49.306;11.350;2023-05-11T15:43:21;96038.47;;;9.92;100.00
596;BME280;19946;49.306;11.350;2023-05-11T15:46:29;96071.13;;;9.83;100.00
596;BME280;19946;49.306;11.350;2023-05-11T15:49:34;96052.81;;;9.46;100.00
596;BME280;19946;49.306;11.350;2023-05-11T15:53:00;96024.06;;;9.30;100.00
596;BME280;19946;49.306;11.350;2023-05-11T15:56:24;96011.84;;;9.42;100.00
596;BME280;19946;49.306;11.350;2023-05-11T15:59:46;96015.81;;;9.46;100.00
596;BME280;19946;49.306;11.350;2023-05-11T16:03:10;96044.59;;;9.72;100.00
596;BME280;19946;49.306;11.350;2023-05-11T16:06:17;96080.81;;;10.01;100.00
596;BME280;19946;49.306;11.350;2023-05-11T16:09:21;96085.97;;;10.10;100.00
596;BME280;19946;49.306;11.350;2023-05-11T16:12:37;96069.91;;;10.07;100.00
596;BME280;19946;49.306;11.350;2023-05-11T16:15:54;96040.09;;;9.83;100.00
596;BME280;19946;49.306;11.350;2023-05-11T16:19:05;96039.94;;;9.75;100.00
596;BME280;19946;49.306;11.350;2023-05-11T16:22:24;96041.88;;;9.83;100.00
596;BME280;19946;49.306;11.350;2023-05-11T16:25:34;96039.28;;;9.83;100.00
596;BME280;19946;49.306;11.350;2023-05-11T16:28:46;96042.13;;;9.80;100.00
596;BME280;19946;49.306;11.350;2023-05-11T16:31:54;96087.06;;;10.17;100.00
596;BME280;19946;49.306;11.350;2023-05-11T16:35:11;96047.19;;;9.91;100.00
596;BME280;19946;49.306;11.350;2023-05-11T16:38:34;96080.44;;;10.24;100.00
596;BME280;19946;49.306;11.350;2023-05-11T16:41:35;96097.16;;;10.11;100.00
596;BME280;19946;49.306;11.350;2023-05-11T16:44:39;96062.41;;;9.84;100.00
596;BME280;19946;49.306;11.350;2023-05-11T16:47:41;96032.31;;;9.64;100.00
596;BME280;19946;49.306;11.350;2023-05-11T16:50:44;96037.63;;;9.72;100.00
596;BME280;19946;49.306;11.350;2023-05-11T16:53:46;96087.31;;;9.85;100.00
596;BME280;19946;49.306;11.350;2023-05-11T16:56:47;96058.16;;;9.64;100.00
596;BME280;19946;49.306;11.350;2023-05-11T16:59:48;96092.66;;;9.94;100.00
596;BME280;19946;49.306;11.350;2023-05-11T17:02:49;96053.78;;;9.45;100.00
596;BME280;19946;49.306;11.350;2023-05-11T17:05:49;96048.59;;;9.36;100.00
596;BME280;19946;49.306;11.350;2023-05-11T17:08:50;96069.28;;;9.45;100.00
596;BME280;19946;49.306;11.350;2023-05-11T17:11:54;96075.97;;;9.48;100.00
596;BME280;19946;49.306;11.350;2023-05-11T17:14:54;96071.28;;;9.42;100.00
596;BME280;19946;49.306;11.350;2023-05-11T17:17:57;96082.63;;;9.50;100.00
596;BME280;19946;49.306;11.350;2023-05-11T17:20:58;96070.53;;;9.51;100.00
596;BME280;19946;49.306;11.350;2023-05-11T17:24:08;96082.47;;;9.52;100.00
596;BME280;19946;49.306;11.350;2023-05-11T17:27:12;96051.69;;;9.30;100.00
596;BME280;19946;49.306;11.350;2023-05-11T17:30:16;96077.97;;;9.44;100.00
596;BME280;19946;49.306;11.350;2023-05-11T17:46:33;96069.72;;;9.20;100.00
596;BME280;19946;49.306;11.350;2023-05-11T17:49:37;96079.56;;;9.26;100.00
596;BME280;19946;49.306;11.350;2023-05-11T17:52:39;96070.72;;;9.19;100.00
596;BME280;19946;49.306;11.350;2023-05-11T17:59:14;96065.47;;;9.09;100.00
596;BME280;19946;49.306;11.350;2023-05-11T18:02:25;96071.28;;;9.02;100.00
596;BME280;19946;49.306;11.350;2023-05-11T18:05:26;96122.00;;;9.33;100.00
596;BME280;19946;49.306;11.350;2023-05-11T18:08:27;96060.97;;;9.02;100.00
596;BME280;19946;49.306;11.350;2023-05-11T18:11:29;96117.63;;;9.24;100.00
596;BME280;19946;49.306;11.350;2023-05-11T18:14:33;96074.94;;;8.99;100.00
596;BME280;19946;49.306;11.350;2023-05-11T18:17:34;96075.59;;;8.92;100.00
596;BME280;19946;49.306;11.350;2023-05-11T18:20:36;96092.66;;;9.04;100.00
596;BME280;19946;49.306;11.350;2023-05-11T19:22:44;96158.81;;;8.95;100.00
596;BME280;19946;49.306;11.350;2023-05-11T19:25:48;96106.09;;;8.56;100.00
596;BME280;19946;49.306;11.350;2023-05-11T19:28:53;96125.75;;;8.68;100.00
596;BME280;19946;49.306;11.350;2023-05-11T19:31:59;96162.81;;;8.88;100.00
596;BME280;19946;49.306;11.350;2023-05-11T19:35:33;96158.34;;;8.90;100.00
596;BME280;19946;49.306;11.350;2023-05-11T19:39:45;96166.63;;;8.84;100.00
596;BME280;19946;49.306;11.350;2023-05-11T19:44:32;96151.06;;;8.74;100.00
596;BME280;19946;49.306;11.350;2023-05-11T19:55:27;96171.38;;;8.89;100.00
596;BME280;19946;49.306;11.350;2023-05-11T19:59:03;96177.50;;;8.88;100.00
596;BME280;19946;49.306;11.350;2023-05-11T20:03:19;96166.34;;;8.87;100.00
596;BME280;19946;49.306;11.350;2023-05-11T20:07:05;96133.53;;;8.57;100.00
596;BME280;19946;49.306;11.350;2023-05-11T20:10:28;96184.41;;;8.87;100.00
596;BME280;19946;49.306;11.350;2023-05-11T20:14:12;96143.38;;;8.63;100.00
596;BME280;19946;49.306;11.350;2023-05-11T20:17:44;96166.28;;;8.77;100.00
596;BME280;19946;49.306;11.350;2023-05-11T20:21:18;96106.53;;;8.40;100.00
596;BME280;19946;49.306;11.350;2023-05-11T20:24:41;96126.94;;;8.44;100.00
596;BME280;19946;49.306;11.350;2023-05-11T20:28:15;96185.69;;;8.72;100.00
596;BME280;19946;49.306;11.350;2023-05-11T20:31:37;96124.91;;;8.47;100.00
596;BME280;19946;49.306;11.350;2023-05-11T20:35:06;96098.81;;;8.29;100.00
596;BME280;19946;49.306;11.350;2023-05-11T20:38:38;96169.97;;;8.75;100.00
596;BME280;19946;49.306;11.350;2023-05-11T20:42:35;96172.09;;;8.70;100.00
596;BME280;19946;49.306;11.350;2023-05-11T20:49:32;96101.34;;;8.20;100.00
596;BME280;19946;49.306;11.350;2023-05-11T20:52:35;96087.50;;;8.21;100.00
596;BME280;19946;49.306;11.350;2023-05-11T20:55:37;96160.94;;;8.69;100.00
596;BME280;19946;49.306;11.350;2023-05-11T23:54:43;96129.78;;;8.29;100.00
596;BME280;19946;49.306;11.350;2023-05-11T23:57:43;96099.50;;;8.11;100.00
